createdAt,value
2019-01-04T00:01:32.871Z,92.21
2019-01-04T00:04:03.147Z,93.43
2019-01-04T00:06:30.627Z,93.68
2019-01-04T00:08:58.234Z,93.30
2019-01-04T00:11:25.675Z,93.55
2019-01-04T00:13:53.197Z,93.09
2019-01-04T00:16:20.663Z,93.25
2019-01-04T00:18:48.161Z,92.46
2019-01-04T00:21:15.653Z,93.01
2019-01-04T00:23:43.077Z,92.37
2019-01-04T00:26:10.534Z,92.96
2019-01-04T00:28:38.035Z,93.20
2019-01-04T00:31:05.450Z,94.13
2019-01-04T00:33:32.952Z,94.58
2019-01-04T00:36:00.461Z,94.51
2019-01-04T00:38:27.903Z,95.39
2019-01-04T00:40:55.407Z,95.30
2019-01-04T00:43:22.845Z,96.21
2019-01-04T00:45:50.312Z,96.76
2019-01-04T00:48:17.808Z,96.31
2019-01-04T00:50:45.277Z,96.28
2019-01-04T00:53:12.759Z,96.86
2019-01-04T00:56:21.947Z,97.20
2019-01-04T00:59:18.282Z,97.47
2019-01-04T01:02:13.890Z,97.93
2019-01-04T01:05:44.194Z,98.25
2019-01-04T01:08:49.315Z,99.10
2019-01-04T01:12:04.340Z,98.71
2019-01-04T01:15:12.640Z,99.43
2019-01-04T01:18:01.900Z,98.12
2019-01-04T01:20:47.673Z,98.95
2019-01-04T01:24:01.960Z,97.53
2019-01-04T01:26:58.937Z,97.85
2019-01-04T01:30:10.369Z,96.77
2019-01-04T01:32:57.830Z,97.53
2019-01-04T01:35:50.395Z,96.36
2019-01-04T01:39:14.941Z,97.40
2019-01-04T01:42:10.614Z,95.74
2019-01-04T01:45:14.734Z,96.42
2019-01-04T01:47:47.806Z,96.60
2019-01-04T01:51:07.856Z,96.42
2019-01-04T01:53:42.334Z,97.23
2019-01-04T01:56:09.760Z,96.45
2019-01-04T01:58:37.340Z,95.51
2019-01-04T02:01:05.301Z,96.25
2019-01-04T02:03:32.801Z,96.28
2019-01-04T02:06:00.251Z,96.80
2019-01-04T02:08:27.859Z,97.13
2019-01-04T02:10:55.289Z,98.09
2019-01-04T02:13:22.789Z,96.95
2019-01-04T02:15:50.191Z,98.37
2019-01-04T02:18:17.687Z,98.08
2019-01-04T02:20:45.166Z,97.36
2019-01-04T02:23:12.589Z,97.42
2019-01-04T02:25:40.028Z,98.05
2019-01-04T02:28:07.439Z,98.19
2019-01-04T02:30:34.974Z,98.22
2019-01-04T02:33:02.458Z,99.00
2019-01-04T02:35:29.965Z,99.04
2019-01-04T02:37:57.391Z,99.53
2019-01-04T02:40:24.854Z,99.09
2019-01-04T02:42:52.260Z,99.60
2019-01-04T02:45:19.721Z,99.54
2019-01-04T02:47:47.136Z,99.03
2019-01-04T02:50:14.579Z,100.00
2019-01-04T02:52:42.002Z,100.00
2019-01-04T02:55:09.429Z,100.00
2019-01-04T02:57:36.888Z,100.00
2019-01-04T03:00:05.405Z,100.00
2019-01-04T03:02:32.915Z,100.00
2019-01-04T03:05:00.543Z,99.73
2019-01-04T03:07:28.091Z,100.00
2019-01-04T03:09:55.638Z,99.66
2019-01-04T03:12:23.038Z,100.00
2019-01-04T03:14:50.484Z,100.00
2019-01-04T03:17:18.027Z,100.00
2019-01-04T03:19:45.546Z,100.00
2019-01-04T03:22:13.049Z,100.00
2019-01-04T03:24:40.562Z,100.00
2019-01-04T03:27:08.099Z,100.00
2019-01-04T03:29:35.596Z,99.53
2019-01-04T03:32:03.145Z,99.46
2019-01-04T03:34:30.638Z,99.87
2019-01-04T03:36:58.147Z,98.40
2019-01-04T03:39:25.757Z,98.49
2019-01-04T03:41:53.314Z,97.68
2019-01-04T03:44:20.743Z,97.16
2019-01-04T03:46:48.247Z,97.24
2019-01-04T03:49:15.847Z,98.25
2019-01-04T03:51:43.703Z,96.65
2019-01-04T03:54:11.204Z,97.91
2019-01-04T03:56:38.666Z,97.49
2019-01-04T03:59:06.216Z,97.46
2019-01-04T04:01:33.864Z,96.57
2019-01-04T04:04:01.839Z,96.96
2019-01-04T04:06:29.391Z,96.87
2019-01-04T04:08:56.950Z,96.42
2019-01-04T04:11:24.481Z,96.83
2019-01-04T04:13:52.087Z,96.32
2019-01-04T04:16:19.604Z,95.73
2019-01-04T04:18:47.193Z,96.68
2019-01-04T04:21:14.710Z,96.17
2019-01-04T04:23:42.136Z,96.67
2019-01-04T04:26:09.726Z,97.90
2019-01-04T04:28:37.212Z,97.10
2019-01-04T04:31:04.948Z,97.73
2019-01-04T04:33:32.538Z,96.76
2019-01-04T04:36:00.007Z,96.53
2019-01-04T04:38:27.534Z,96.84
2019-01-04T04:40:55.002Z,96.71
2019-01-04T04:43:22.529Z,97.74
2019-01-04T04:45:49.945Z,96.96
2019-01-04T04:48:17.594Z,98.58
2019-01-04T04:50:45.126Z,98.88
2019-01-04T04:53:12.771Z,97.70
2019-01-04T04:55:40.251Z,97.67
2019-01-04T04:58:07.701Z,97.43
2019-01-04T05:00:35.264Z,97.57
2019-01-04T05:03:02.689Z,95.69
2019-01-04T05:05:30.118Z,96.83
2019-01-04T05:07:57.556Z,96.58
2019-01-04T05:10:24.977Z,96.50
2019-01-04T05:12:52.555Z,97.26
2019-01-04T05:15:19.973Z,97.30
2019-01-04T05:17:47.412Z,96.29
2019-01-04T05:20:15.033Z,97.42
2019-01-04T05:22:42.496Z,96.00
2019-01-04T05:25:10.047Z,97.37
2019-01-04T05:27:37.474Z,96.32
2019-01-04T05:30:05.316Z,96.42
2019-01-04T05:32:32.783Z,96.02
2019-01-04T05:35:00.352Z,96.07
2019-01-04T05:37:27.985Z,95.89
2019-01-04T05:39:55.934Z,96.25
2019-01-04T05:42:24.144Z,96.68
2019-01-04T05:44:52.107Z,96.06
2019-01-04T05:47:19.938Z,97.05
2019-01-04T05:49:47.792Z,96.79
2019-01-04T05:52:15.733Z,96.07
2019-01-04T05:54:43.786Z,96.85
2019-01-04T05:57:11.746Z,97.19
2019-01-04T05:59:39.750Z,95.87
2019-01-04T06:02:07.568Z,96.41
2019-01-04T06:04:35.289Z,97.50
2019-01-04T06:07:02.907Z,97.12
2019-01-04T06:09:30.537Z,96.52
2019-01-04T06:11:58.001Z,96.02
2019-01-04T06:14:25.480Z,96.70
2019-01-04T06:16:53.146Z,96.15
2019-01-04T06:19:20.587Z,96.69
2019-01-04T06:21:48.214Z,96.90
2019-01-04T06:24:15.745Z,96.45
2019-01-04T06:26:43.267Z,95.49
2019-01-04T06:29:10.710Z,94.24
2019-01-04T06:31:38.173Z,94.97
2019-01-04T06:34:05.636Z,93.65
2019-01-04T06:36:33.136Z,93.50
2019-01-04T06:39:00.582Z,92.57
2019-01-04T06:41:28.245Z,93.36
2019-01-04T06:43:56.091Z,92.84
2019-01-04T06:46:23.541Z,94.14
2019-01-04T06:48:52.065Z,91.33
2019-01-04T06:51:19.507Z,91.81
2019-01-04T06:53:46.977Z,92.10
2019-01-04T06:56:14.403Z,91.35
2019-01-04T06:58:41.909Z,91.05
2019-01-04T07:01:09.460Z,91.97
2019-01-04T07:03:36.977Z,92.81
2019-01-04T07:06:04.558Z,91.37
2019-01-04T07:08:32.202Z,88.21
2019-01-04T07:10:59.722Z,91.18
2019-01-04T07:13:27.182Z,88.70
2019-01-04T07:15:54.795Z,87.07
2019-01-04T07:18:22.295Z,86.95
2019-01-04T07:20:49.754Z,86.09
2019-01-04T07:23:17.252Z,86.28
2019-01-04T07:25:45.077Z,85.65
2019-01-04T07:28:13.020Z,85.35
2019-01-04T07:30:40.697Z,86.69
2019-01-04T07:33:08.452Z,85.37
2019-01-04T07:35:36.204Z,84.52
2019-01-04T07:38:04.019Z,85.78
2019-01-04T07:40:31.553Z,87.10
2019-01-04T07:42:59.156Z,84.67
2019-01-04T07:45:26.719Z,86.53
2019-01-04T07:47:54.208Z,84.52
2019-01-04T07:50:21.671Z,86.45
2019-01-04T07:52:49.299Z,83.69
2019-01-04T07:55:16.760Z,82.07
2019-01-04T07:57:44.358Z,80.23
2019-01-04T08:00:13.990Z,80.28
2019-01-04T08:02:43.360Z,80.09
2019-01-04T08:05:13.321Z,82.47
2019-01-04T08:07:40.988Z,83.13
2019-01-04T08:10:08.627Z,81.91
2019-01-04T08:12:36.227Z,81.61
2019-01-04T08:15:04.241Z,82.20
2019-01-04T08:17:32.467Z,81.32
2019-01-04T08:20:01.457Z,81.40
2019-01-04T08:22:29.201Z,79.42
2019-01-04T08:24:57.050Z,81.17
2019-01-04T08:27:24.913Z,83.02
2019-01-04T08:29:52.862Z,80.66
2019-01-04T08:32:20.526Z,80.85
2019-01-04T08:34:48.689Z,80.10
2019-01-04T08:37:16.488Z,77.25
2019-01-04T08:39:44.193Z,78.29
2019-01-04T08:42:12.027Z,78.99
2019-01-04T08:44:39.878Z,78.71
2019-01-04T08:47:07.763Z,81.19
2019-01-04T08:49:36.577Z,80.69
2019-01-04T08:52:04.392Z,81.63
2019-01-04T08:54:32.149Z,80.03
2019-01-04T08:56:59.991Z,78.76
2019-01-04T09:23:57.153Z,80.59
2019-01-04T09:26:24.915Z,79.87
2019-01-04T09:28:52.656Z,77.97
2019-01-04T09:31:20.384Z,78.46
2019-01-04T09:33:48.208Z,81.35
2019-01-04T09:36:16.031Z,78.20
2019-01-04T09:38:49.492Z,80.65
2019-01-04T09:41:40.340Z,78.74
2019-01-04T09:44:07.861Z,78.29
2019-01-04T09:46:35.383Z,78.64
2019-01-04T09:49:03.096Z,76.37
2019-01-04T09:51:30.797Z,79.24
2019-01-04T09:53:58.487Z,76.60
2019-01-04T09:56:26.098Z,74.26
2019-01-04T09:58:53.651Z,73.09
2019-01-04T10:01:21.201Z,74.82
2019-01-04T10:03:48.761Z,74.18
2019-01-04T10:06:16.323Z,76.15
2019-01-04T10:08:44.959Z,73.74
2019-01-04T10:11:12.775Z,74.80
2019-01-04T10:13:40.311Z,76.16
2019-01-04T10:16:08.826Z,72.93
2019-01-04T10:18:36.349Z,76.28
2019-01-04T10:21:03.798Z,78.11
2019-01-04T10:23:31.380Z,78.05
2019-01-04T10:25:58.907Z,76.64
2019-01-04T10:28:26.415Z,77.22
2019-01-04T10:30:53.942Z,77.79
2019-01-04T10:33:21.427Z,78.79
2019-01-04T10:35:48.905Z,78.90
2019-01-04T10:38:16.388Z,75.45
2019-01-04T10:40:44.060Z,77.96
2019-01-04T10:43:11.976Z,80.46
2019-01-04T10:45:40.424Z,78.17
2019-01-04T10:48:08.036Z,79.35
2019-01-04T10:50:35.671Z,80.00
2019-01-04T10:53:03.165Z,78.06
2019-01-04T10:55:30.815Z,78.40
2019-01-04T10:57:58.492Z,76.62
2019-01-04T11:00:25.992Z,76.62
2019-01-04T11:02:53.560Z,78.74
2019-01-04T11:05:22.010Z,78.21
2019-01-04T11:07:49.626Z,79.95
2019-01-04T11:10:17.343Z,78.93
2019-01-04T11:12:44.909Z,80.32
2019-01-04T11:15:12.408Z,80.33
2019-01-04T11:17:39.941Z,78.99
2019-01-04T11:20:39.811Z,79.95
2019-01-04T11:23:47.329Z,81.76
2019-01-04T11:26:20.397Z,80.53
2019-01-04T11:29:12.633Z,81.20
2019-01-04T11:32:06.983Z,79.98
2019-01-04T11:34:57.178Z,83.00
2019-01-04T11:37:42.156Z,83.07
2019-01-04T11:40:54.334Z,82.41
2019-01-04T11:43:47.289Z,81.23
2019-01-04T11:46:44.472Z,83.37
2019-01-04T11:49:36.805Z,84.68
2019-01-04T11:52:19.960Z,85.13
2019-01-04T11:54:47.747Z,86.37
2019-01-04T11:57:15.578Z,83.69
2019-01-04T11:59:43.172Z,85.42
2019-01-04T12:02:10.742Z,84.28
2019-01-04T12:04:39.519Z,84.24
2019-01-04T12:07:07.430Z,84.32
2019-01-04T12:09:35.359Z,83.88
2019-01-04T12:12:03.552Z,84.42
2019-01-04T12:14:31.564Z,81.23
2019-01-04T12:16:59.503Z,81.32
2019-01-04T12:19:27.266Z,83.11
2019-01-04T12:21:55.366Z,82.79
2019-01-04T12:24:23.292Z,83.49
2019-01-04T12:26:51.410Z,86.66
2019-01-04T12:29:19.347Z,86.72
2019-01-04T12:31:47.420Z,88.03
2019-01-04T12:34:16.711Z,89.14
2019-01-04T12:36:44.686Z,89.14
2019-01-04T12:39:12.458Z,89.34
2019-01-04T12:41:40.316Z,90.21
2019-01-04T12:44:08.128Z,91.57
2019-01-04T12:46:35.793Z,91.55
2019-01-04T12:49:03.338Z,91.51
2019-01-04T12:51:30.961Z,92.41
2019-01-04T12:53:58.458Z,93.41
2019-01-04T12:56:26.088Z,93.60
2019-01-04T12:58:53.728Z,92.46
2019-01-04T13:01:21.411Z,92.54
2019-01-04T13:03:49.067Z,92.35
2019-01-04T13:06:16.626Z,90.91
2019-01-04T13:08:44.409Z,90.04
2019-01-04T13:11:12.135Z,90.22
2019-01-04T13:13:39.705Z,88.75
2019-01-04T13:16:07.573Z,89.52
2019-01-04T13:18:35.144Z,92.22
2019-01-04T13:21:02.934Z,89.61
2019-01-04T13:23:30.605Z,91.52
2019-01-04T13:25:58.336Z,91.48
2019-01-04T13:28:25.920Z,91.10
2019-01-04T13:30:53.795Z,92.65
2019-01-04T13:33:21.302Z,93.59
2019-01-04T13:35:48.902Z,92.42
2019-01-04T13:38:19.981Z,92.22
2019-01-04T13:40:46.347Z,92.18
2019-01-04T13:43:13.938Z,93.17
2019-01-04T13:45:41.519Z,92.49
2019-01-04T13:48:09.154Z,93.66
2019-01-04T13:50:36.752Z,91.81
2019-01-04T13:53:04.450Z,92.81
2019-01-04T13:55:32.032Z,93.08
2019-01-04T13:57:59.826Z,93.17
2019-01-04T14:00:27.369Z,94.10
2019-01-04T14:02:54.947Z,94.68
2019-01-04T14:05:22.457Z,94.75
2019-01-04T14:07:49.963Z,94.85
2019-01-04T14:10:17.578Z,95.88
2019-01-04T14:12:45.207Z,95.03
2019-01-04T14:15:12.817Z,95.86
2019-01-04T14:17:40.577Z,96.62
2019-01-04T14:20:08.286Z,96.66
2019-01-04T14:22:35.836Z,97.02
2019-01-04T14:25:03.666Z,97.65
2019-01-04T14:27:31.260Z,97.70
2019-01-04T14:29:58.972Z,96.67
2019-01-04T14:32:26.483Z,97.13
2019-01-04T14:34:54.018Z,97.63
2019-01-04T14:37:21.577Z,97.94
2019-01-04T14:39:49.202Z,96.65
2019-01-04T14:42:16.739Z,97.33
2019-01-04T14:44:44.199Z,96.57
2019-01-04T14:47:11.877Z,96.22
2019-01-04T14:49:39.526Z,97.91
2019-01-04T14:52:07.228Z,98.09
2019-01-04T14:54:34.833Z,97.71
2019-01-04T14:57:02.553Z,96.21
2019-01-04T14:59:30.042Z,97.19
2019-01-04T15:01:57.630Z,98.45
2019-01-04T15:04:25.211Z,98.10
2019-01-04T15:06:52.758Z,99.06
2019-01-04T15:09:20.350Z,99.32
2019-01-04T15:11:47.969Z,97.79
2019-01-04T15:14:15.603Z,98.09
2019-01-04T15:16:43.241Z,98.41
2019-01-04T15:19:10.873Z,98.24
2019-01-04T15:21:38.469Z,98.09
2019-01-04T15:24:06.086Z,98.37
2019-01-04T15:26:33.740Z,98.77
2019-01-04T15:29:01.261Z,98.24
2019-01-04T15:31:28.831Z,99.84
2019-01-04T15:33:56.579Z,99.57
2019-01-04T15:36:24.168Z,99.20
2019-01-04T15:38:51.733Z,99.21
2019-01-04T15:41:19.449Z,99.86
2019-01-04T15:43:46.967Z,99.49
2019-01-04T15:46:14.514Z,100.00
2019-01-04T15:48:42.113Z,99.69
2019-01-04T15:51:09.646Z,99.63
2019-01-04T15:53:37.255Z,100.00
2019-01-04T15:56:04.734Z,100.00
2019-01-04T15:58:32.351Z,100.00
2019-01-04T16:00:59.929Z,100.00
2019-01-04T16:03:27.435Z,100.00
2019-01-04T16:05:55.106Z,99.91
2019-01-04T16:08:22.666Z,100.00
2019-01-04T16:10:50.395Z,100.00
2019-01-04T16:13:18.262Z,99.62
2019-01-04T16:15:45.984Z,99.98
2019-01-04T16:18:13.655Z,100.00
2019-01-04T16:20:41.367Z,100.00
2019-01-04T16:23:08.991Z,100.00
2019-01-04T16:25:36.820Z,99.77
2019-01-04T16:28:04.460Z,99.32
2019-01-04T16:30:32.036Z,99.76
2019-01-04T16:32:59.582Z,99.78
2019-01-04T16:35:27.064Z,100.00
2019-01-04T16:37:54.684Z,100.00
2019-01-04T16:40:22.225Z,99.73
2019-01-04T16:42:49.855Z,99.90
2019-01-04T16:45:21.381Z,100.00
2019-01-04T16:47:49.285Z,99.47
2019-01-04T16:50:16.817Z,99.77
2019-01-04T16:52:44.436Z,99.94
2019-01-04T16:55:11.935Z,99.08
2019-01-04T16:57:39.690Z,99.32
2019-01-04T17:00:08.717Z,100.00
2019-01-04T17:02:36.329Z,100.00
2019-01-04T17:05:04.010Z,100.00
2019-01-04T17:07:31.733Z,100.00
2019-01-04T17:09:59.326Z,99.79
2019-01-04T17:12:27.059Z,100.00
2019-01-04T17:14:56.049Z,100.00
2019-01-04T17:17:23.674Z,100.00
2019-01-04T17:19:51.423Z,99.60
2019-01-04T17:22:19.102Z,99.83
2019-01-04T17:24:46.745Z,99.42
2019-01-04T17:27:14.445Z,100.00
2019-01-04T17:29:41.942Z,99.76
2019-01-04T17:32:09.602Z,98.82
2019-01-04T17:34:37.346Z,98.80
2019-01-04T17:37:05.046Z,98.60
2019-01-04T17:39:32.731Z,98.67
2019-01-04T17:42:00.276Z,98.22
2019-01-04T17:44:28.516Z,98.68
2019-01-04T17:46:58.026Z,98.23
2019-01-04T17:49:25.765Z,98.25
2019-01-04T17:51:53.461Z,99.27
2019-01-04T17:54:21.108Z,99.29
2019-01-04T17:56:48.780Z,99.70
2019-01-04T17:59:17.509Z,98.33
2019-01-04T18:01:45.214Z,97.04
2019-01-04T18:04:13.042Z,97.25
2019-01-04T18:06:40.553Z,98.39
2019-01-04T18:09:08.250Z,97.50
2019-01-04T18:11:35.925Z,98.38
2019-01-04T18:14:03.614Z,97.88
2019-01-04T18:16:31.318Z,97.47
2019-01-04T18:18:59.066Z,98.05
2019-01-04T18:21:27.096Z,97.64
2019-01-04T18:23:54.622Z,97.01
2019-01-04T18:26:24.528Z,97.17
2019-01-04T18:28:51.977Z,98.18
2019-01-04T18:31:19.911Z,98.87
2019-01-04T18:33:47.731Z,97.25
2019-01-04T18:36:16.364Z,97.60
2019-01-04T18:38:43.983Z,96.32
2019-01-04T18:41:11.548Z,98.50
2019-01-04T18:43:39.286Z,97.82
2019-01-04T18:46:06.947Z,97.37
2019-01-04T18:48:34.511Z,96.97
2019-01-04T18:51:02.218Z,97.93
2019-01-04T18:53:29.693Z,97.55
2019-01-04T18:55:57.428Z,96.40
2019-01-04T18:58:25.061Z,98.09
2019-01-04T19:00:52.737Z,97.12
2019-01-04T19:03:20.429Z,96.18
2019-01-04T19:05:47.973Z,96.93
2019-01-04T19:08:15.719Z,96.19
2019-01-04T19:10:43.490Z,97.45
2019-01-04T19:13:11.117Z,96.99
2019-01-04T19:15:38.681Z,97.00
2019-01-04T19:18:06.348Z,97.77
2019-01-04T19:20:33.950Z,97.73
2019-01-04T19:23:01.581Z,97.04
2019-01-04T19:25:29.141Z,97.67
2019-01-04T19:27:56.729Z,96.54
2019-01-04T19:30:24.345Z,96.59
2019-01-04T19:32:52.020Z,97.54
2019-01-04T19:35:19.812Z,96.80
2019-01-04T19:37:47.460Z,96.86
2019-01-04T19:40:15.185Z,97.33
2019-01-04T19:42:42.907Z,97.19
2019-01-04T19:45:10.817Z,97.87
2019-01-04T19:47:38.534Z,97.73
2019-01-04T19:50:18.843Z,97.58
2019-01-04T19:52:46.545Z,96.77
2019-01-04T19:55:14.078Z,96.22
2019-01-04T19:57:41.865Z,97.18
2019-01-04T20:00:09.591Z,96.07
2019-01-04T20:02:37.120Z,96.52
2019-01-04T20:05:05.039Z,95.08
2019-01-04T20:08:18.000Z,96.13
2019-01-04T20:12:04.152Z,97.00
2019-01-04T20:15:27.879Z,94.61
2019-01-04T20:18:15.489Z,95.14
2019-01-04T20:21:01.663Z,95.08
2019-01-04T20:23:47.766Z,96.25
2019-01-04T20:26:38.016Z,95.58
2019-01-04T20:29:26.619Z,95.65
2019-01-04T20:32:12.866Z,96.72
2019-01-04T20:35:00.234Z,95.99
2019-01-04T20:37:45.962Z,96.88
2019-01-04T20:40:33.423Z,97.76
2019-01-04T20:43:19.491Z,96.63
2019-01-04T20:46:04.540Z,97.62
2019-01-04T20:48:54.783Z,97.97
2019-01-04T20:51:54.001Z,98.00
2019-01-04T20:54:44.033Z,96.20
2019-01-04T20:57:39.983Z,95.86
2019-01-04T21:00:29.670Z,97.45
2019-01-04T21:03:15.072Z,96.96
2019-01-04T21:05:57.602Z,96.84
2019-01-04T21:08:44.834Z,97.64
2019-01-04T21:11:31.990Z,97.62
2019-01-04T21:14:21.981Z,97.99
2019-01-04T21:17:07.504Z,97.33
2019-01-04T21:20:06.521Z,97.58
2019-01-04T21:22:56.910Z,97.64
2019-01-04T21:25:36.077Z,98.30
2019-01-04T21:28:21.866Z,98.21
2019-01-04T21:31:24.244Z,98.56
2019-01-04T21:34:10.841Z,97.82
2019-01-04T21:37:04.174Z,98.21
2019-01-04T21:39:50.146Z,97.05
2019-01-04T21:42:36.387Z,97.52
2019-01-04T21:45:22.561Z,98.68
2019-01-04T21:48:10.576Z,95.99
2019-01-04T21:51:03.883Z,97.75
2019-01-04T21:53:44.827Z,95.63
2019-01-04T21:56:43.786Z,95.71
2019-01-04T21:59:39.356Z,94.75
2019-01-04T22:02:26.446Z,96.14
2019-01-04T22:05:25.427Z,94.94
2019-01-04T22:08:11.044Z,94.31
2019-01-04T22:11:01.284Z,95.22
2019-01-04T22:13:39.068Z,94.53
2019-01-04T22:16:26.262Z,95.39
2019-01-04T22:19:28.897Z,93.79
2019-01-04T22:22:15.997Z,94.27
2019-01-04T22:25:03.042Z,94.14
2019-01-04T22:27:48.951Z,94.58
2019-01-04T22:30:40.577Z,94.87
2019-01-04T22:33:26.628Z,94.70
2019-01-04T22:36:31.672Z,93.05
2019-01-04T22:39:17.409Z,94.35
2019-01-04T22:42:03.333Z,93.91
2019-01-04T22:44:48.828Z,95.67
2019-01-04T22:47:38.626Z,95.93
2019-01-04T22:50:25.888Z,96.84
2019-01-04T22:53:11.709Z,96.51
2019-01-04T22:55:52.114Z,95.74
2019-01-04T22:58:51.086Z,95.15
2019-01-04T23:01:43.999Z,95.80
2019-01-04T23:04:33.942Z,95.93
2019-01-04T23:07:19.598Z,95.74
2019-01-04T23:10:05.381Z,96.16
2019-01-04T23:12:55.479Z,95.53
2019-01-04T23:15:58.037Z,95.70
2019-01-04T23:18:41.544Z,95.56
2019-01-04T23:22:21.361Z,94.80
2019-01-04T23:25:17.559Z,95.10
2019-01-04T23:28:05.343Z,92.95
2019-01-04T23:30:50.961Z,94.38
2019-01-04T23:33:36.401Z,95.15
2019-01-04T23:36:23.375Z,95.81
2019-01-04T23:39:09.409Z,95.30
2019-01-04T23:42:05.137Z,96.45
2019-01-04T23:44:50.905Z,96.31
2019-01-04T23:47:38.121Z,94.50
2019-01-04T23:50:25.420Z,95.71
2019-01-04T23:53:21.731Z,95.15
2019-01-04T23:56:07.347Z,96.23
2019-01-04T23:58:53.287Z,97.44
